Time;durP1;ratioP1;P1;durP2;ratioP2;P2;SDS_P1;SDS_P2;PMS_P1;PMS_P2;Temp;Humidity;BMP_temperature;BMP_pressure;BME280_temperature;BME280_humidity;BME280_pressure;Samples;Min_cycle;Max_cycle;Signal;HPM_P1;HPM_P2
2022/05/31 00:00:36;;;;;;;2.78;2.42;;;8.20;99.90;;;;;;5049972;28;20044;-70
2022/05/31 00:03:04;;;;;;;2.88;2.50;;;8.10;99.90;;;;;;5038578;28;20029;-70
2022/05/31 00:05:30;;;;;;;2.88;2.22;;;8.20;99.90;;;;;;5040566;28;20033;-71
2022/05/31 00:07:55;;;;;;;2.65;2.38;;;8.20;99.90;;;;;;5044443;28;20558;-73
2022/05/31 00:10:21;;;;;;;3.05;2.13;;;8.20;99.90;;;;;;5051307;28;20059;-72
2022/05/31 00:12:47;;;;;;;3.22;2.30;;;8.00;99.90;;;;;;5032734;28;20064;-72
2022/05/31 00:15:15;;;;;;;3.08;2.45;;;7.80;99.90;;;;;;5043166;28;20013;-72
2022/05/31 00:17:41;;;;;;;3.17;2.70;;;8.20;99.90;;;;;;5038401;28;20082;-71
2022/05/31 00:20:09;;;;;;;2.63;2.28;;;8.00;99.90;;;;;;5040402;28;20017;-71
2022/05/31 00:22:36;;;;;;;3.35;2.40;;;7.90;99.90;;;;;;5035120;28;20029;-71
2022/05/31 00:25:04;;;;;;;3.70;2.83;;;7.80;99.90;;;;;;5050361;28;20037;-72
2022/05/31 00:27:30;;;;;;;2.75;2.50;;;7.70;99.90;;;;;;5069312;22;20127;-77
2022/05/31 00:29:56;;;;;;;2.95;2.50;;;7.60;99.90;;;;;;5064726;28;20151;-75
2022/05/31 00:32:30;;;;;;;4.60;2.72;;;7.90;99.90;;;;;;5063407;28;20071;-77
2022/05/31 00:34:58;;;;;;;4.22;2.60;;;7.90;99.90;;;;;;5054243;28;20031;-76
2022/05/31 00:37:23;;;;;;;2.60;2.40;;;8.00;99.90;;;;;;5058487;28;20017;-74
2022/05/31 00:39:49;;;;;;;4.53;2.83;;;7.80;99.90;;;;;;5051257;28;20029;-75
2022/05/31 00:42:18;;;;;;;3.38;2.92;;;7.60;99.90;;;;;;5032906;28;20032;-75
2022/05/31 00:44:44;;;;;;;4.82;2.67;;;7.40;99.90;;;;;;5051334;28;20498;-75
2022/05/31 00:47:26;;;;;;;3.10;2.78;;;8.00;99.90;;;;;;5036128;28;20117;-74
2022/05/31 00:50:02;;;;;;;3.28;2.58;;;7.90;99.90;;;;;;5055394;28;20505;-74
2022/05/31 00:52:31;;;;;;;3.58;3.28;;;8.10;99.90;;;;;;5049743;28;20026;-75
2022/05/31 00:55:20;;;;;;;3.83;2.90;;;8.20;99.90;;;;;;5053013;28;20025;-75
2022/05/31 00:57:58;;;;;;;3.58;2.80;;;8.00;99.90;;;;;;5055034;28;20094;-75
2022/05/31 01:00:24;;;;;;;3.25;2.80;;;8.10;99.90;;;;;;5054631;28;20027;-76
2022/05/31 01:02:50;;;;;;;3.35;2.72;;;7.80;99.90;;;;;;5037253;28;20120;-75
2022/05/31 01:05:17;;;;;;;2.92;2.50;;;7.80;99.90;;;;;;5037346;28;20021;-76
2022/05/31 01:07:42;;;;;;;3.83;2.38;;;7.90;99.90;;;;;;5037105;28;20028;-76
2022/05/31 01:10:10;;;;;;;4.70;3.30;;;7.90;99.90;;;;;;5037252;28;20498;-76
2022/05/31 01:12:37;;;;;;;2.70;2.50;;;8.10;99.90;;;;;;5054716;28;20029;-76
2022/05/31 01:15:03;;;;;;;3.40;2.38;;;8.20;99.90;;;;;;5054953;28;20490;-76
2022/05/31 01:17:29;;;;;;;2.90;2.60;;;8.20;99.90;;;;;;5054903;28;20112;-76
2022/05/31 01:20:00;;;;;;;2.67;2.40;;;8.00;99.90;;;;;;5054879;28;20551;-76
2022/05/31 01:22:50;;;;;;;3.00;2.50;;;7.90;99.90;;;;;;5055893;28;20067;-77
2022/05/31 01:25:22;;;;;;;4.15;2.70;;;8.10;99.90;;;;;;5057564;28;20047;-76
2022/05/31 01:28:21;;;;;;;3.70;2.80;;;7.90;99.90;;;;;;5036657;28;20032;-75
2022/05/31 01:31:00;;;;;;;2.80;2.60;;;8.00;99.90;;;;;;5030366;28;20021;-75
2022/05/31 01:33:48;;;;;;;4.68;3.20;;;8.10;99.90;;;;;;5031391;28;20028;-75
2022/05/31 01:36:19;;;;;;;2.65;2.45;;;8.00;99.90;;;;;;5054113;28;20482;-75
2022/05/31 01:39:00;;;;;;;3.72;2.67;;;7.80;99.90;;;;;;5036500;28;20029;-75
2022/05/31 01:41:34;;;;;;;3.20;2.80;;;7.70;99.90;;;;;;5045232;28;20033;-74
2022/05/31 01:44:02;;;;;;;4.05;2.83;;;7.60;99.90;;;;;;5043816;28;20059;-75
2022/05/31 01:46:32;;;;;;;3.15;2.85;;;7.50;99.90;;;;;;5035154;28;20025;-75
2022/05/31 01:48:59;;;;;;;2.90;2.55;;;7.70;99.90;;;;;;5054080;28;20029;-74
2022/05/31 01:51:26;;;;;;;2.72;2.53;;;7.90;99.90;;;;;;5053500;28;20021;-74
2022/05/31 01:53:54;;;;;;;3.38;2.70;;;7.90;99.90;;;;;;5054123;28;20028;-74
2022/05/31 01:56:20;;;;;;;2.83;2.60;;;7.80;99.90;;;;;;5054056;28;20032;-75
2022/05/31 01:58:47;;;;;;;3.22;2.70;;;7.80;99.90;;;;;;5035887;28;20056;-75
2022/05/31 02:01:14;;;;;;;3.05;2.35;;;7.90;99.90;;;;;;5053388;28;20025;-74
2022/05/31 02:03:41;;;;;;;3.05;2.75;;;7.70;99.90;;;;;;5036029;28;20025;-74
2022/05/31 02:06:22;;;;;;;3.17;2.67;;;7.80;99.90;;;;;;5036038;28;20025;-74
2022/05/31 02:08:48;;;;;;;3.90;2.85;;;7.70;99.90;;;;;;5053794;28;20029;-76
2022/05/31 02:11:13;;;;;;;3.75;2.75;;;7.70;99.90;;;;;;5053248;28;20021;-76
2022/05/31 02:13:39;;;;;;;3.33;2.70;;;7.70;99.90;;;;;;5054391;28;20090;-75
2022/05/31 02:16:04;;;;;;;3.30;3.00;;;7.90;99.90;;;;;;5053990;28;20036;-74
2022/05/31 02:19:15;;;;;;;3.22;2.80;;;7.80;99.90;;;;;;5053941;28;20032;-74
2022/05/31 02:21:15;;;;;;;3.72;2.70;;;7.60;99.90;;;;;;5053045;28;20021;-74
2022/05/31 02:23:41;;;;;;;3.38;2.80;;;7.50;99.90;;;;;;5053720;28;20043;-75
2022/05/31 02:26:06;;;;;;;3.08;2.88;;;7.70;99.90;;;;;;5035966;28;20123;-75
2022/05/31 02:28:32;;;;;;;2.85;2.58;;;7.60;99.90;;;;;;5053478;28;20028;-75
2022/05/31 02:30:58;;;;;;;3.58;3.03;;;7.60;99.90;;;;;;5053118;28;20017;-75
2022/05/31 02:33:23;;;;;;;4.43;2.83;;;7.60;99.90;;;;;;5043964;28;20068;-75
2022/05/31 02:35:49;;;;;;;3.50;3.00;;;7.60;99.90;;;;;;5053409;28;20028;-75
2022/05/31 02:38:15;;;;;;;6.47;3.55;;;7.60;99.90;;;;;;5035649;28;20047;-76
2022/05/31 02:40:40;;;;;;;3.83;2.70;;;7.40;99.90;;;;;;5053187;28;20028;-75
2022/05/31 02:43:07;;;;;;;3.00;2.80;;;7.40;99.90;;;;;;5053337;28;20103;-75
2022/05/31 02:45:33;;;;;;;3.47;3.15;;;7.40;99.90;;;;;;5053305;28;20021;-75
2022/05/31 02:47:59;;;;;;;4.38;3.17;;;7.40;99.90;;;;;;5035114;28;20036;-75
2022/05/31 02:50:25;;;;;;;4.20;3.10;;;7.50;99.90;;;;;;5052525;28;20017;-76
2022/05/31 02:52:50;;;;;;;4.32;3.10;;;7.30;99.90;;;;;;5053195;28;20025;-75
2022/05/31 02:55:16;;;;;;;3.92;3.00;;;7.10;99.90;;;;;;5053033;28;20033;-73
2022/05/31 02:57:42;;;;;;;3.47;2.90;;;7.20;99.90;;;;;;5052976;28;20032;-75
2022/05/31 03:00:10;;;;;;;3.42;3.00;;;7.40;99.90;;;;;;5052873;28;20021;-75
2022/05/31 03:02:36;;;;;;;3.72;3.30;;;7.50;99.90;;;;;;5052529;28;20021;-75
2022/05/31 03:05:01;;;;;;;4.38;2.78;;;7.50;99.90;;;;;;5052868;28;20032;-76
2022/05/31 03:07:27;;;;;;;3.45;2.83;;;7.60;99.90;;;;;;5052674;28;20552;-75
2022/05/31 03:09:52;;;;;;;3.45;2.95;;;7.40;99.90;;;;;;5052045;28;20100;-75
2022/05/31 03:12:19;;;;;;;3.65;3.05;;;7.40;99.90;;;;;;5052031;28;20029;-76
2022/05/31 03:14:50;;;;;;;3.38;3.00;;;7.30;99.90;;;;;;5053758;28;20029;-76
2022/05/31 03:17:30;;;;;;;4.07;3.08;;;7.50;99.90;;;;;;5053191;28;20495;-76
2022/05/31 03:20:22;;;;;;;3.47;3.17;;;7.40;99.90;;;;;;5052633;28;20028;-74
2022/05/31 03:23:06;;;;;;;3.53;3.20;;;7.60;99.90;;;;;;5021561;28;20040;-73
2022/05/31 03:25:32;;;;;;;4.15;3.75;;;7.70;99.90;;;;;;5052554;28;20017;-74
2022/05/31 03:28:00;;;;;;;3.35;3.13;;;7.60;99.90;;;;;;5052187;28;20146;-75
2022/05/31 03:30:26;;;;;;;3.60;3.30;;;7.70;99.90;;;;;;5051953;28;20051;-74
2022/05/31 03:32:53;;;;;;;5.28;3.80;;;7.80;99.90;;;;;;5052335;28;20479;-75
2022/05/31 03:35:19;;;;;;;4.50;3.25;;;7.80;99.90;;;;;;5052308;28;20470;-75
2022/05/31 03:37:44;;;;;;;6.03;4.70;;;7.80;99.90;;;;;;5052298;28;20036;-75
2022/05/31 03:40:10;;;;;;;8.30;6.95;;;7.60;99.90;;;;;;5052016;28;20021;-78
2022/05/31 03:42:36;;;;;;;7.60;6.38;;;7.30;99.90;;;;;;5051928;28;20029;-74
2022/05/31 03:45:02;;;;;;;6.18;5.55;;;7.40;99.90;;;;;;5052168;28;20470;-76
2022/05/31 03:47:27;;;;;;;8.65;7.32;;;7.50;99.90;;;;;;5052033;28;20044;-75
2022/05/31 03:49:53;;;;;;;6.30;5.70;;;7.40;99.90;;;;;;5034245;28;20024;-76
2022/05/31 03:52:18;;;;;;;9.35;7.22;;;7.60;99.90;;;;;;5033476;28;20054;-76
2022/05/31 03:54:44;;;;;;;7.80;6.97;;;7.70;99.90;;;;;;5034240;28;20025;-76
2022/05/31 03:57:19;;;;;;;11.27;8.48;;;7.40;99.90;;;;;;5051938;28;20383;-73
2022/05/31 03:59:44;;;;;;;8.10;7.30;;;7.60;99.90;;;;;;5034138;28;20032;-77
2022/05/31 04:02:10;;;;;;;8.95;7.80;;;7.70;99.90;;;;;;5051399;28;20382;-75
2022/05/31 04:04:36;;;;;;;9.85;7.13;;;7.60;99.90;;;;;;5051738;28;20056;-75
2022/05/31 04:07:03;;;;;;;7.70;6.30;;;7.90;99.90;;;;;;5033820;28;20091;-76
2022/05/31 04:09:28;;;;;;;6.05;4.82;;;8.10;99.90;;;;;;5033729;28;20021;-76
2022/05/31 04:11:56;;;;;;;4.72;4.20;;;8.30;99.90;;;;;;5033587;28;20104;-76
2022/05/31 04:14:22;;;;;;;4.75;4.25;;;8.30;99.90;;;;;;5051849;28;20017;-73
2022/05/31 04:16:48;;;;;;;7.57;6.30;;;8.10;99.90;;;;;;5051600;28;20096;-76
2022/05/31 04:19:13;;;;;;;7.57;5.68;;;7.80;99.90;;;;;;5052298;28;20032;-76
2022/05/31 04:21:39;;;;;;;8.00;5.97;;;7.70;99.90;;;;;;5038383;28;20541;-77
2022/05/31 04:24:14;;;;;;;6.28;4.70;;;8.00;99.90;;;;;;5034712;28;20035;-74
2022/05/31 04:26:43;;;;;;;6.03;4.10;;;8.30;99.90;;;;;;5051973;28;20074;-77
2022/05/31 04:29:08;;;;;;;4.43;4.03;;;8.50;99.90;;;;;;5034329;28;20471;-76
2022/05/31 04:31:34;;;;;;;5.00;3.63;;;8.70;99.90;;;;;;5033171;28;20036;-77
2022/05/31 04:34:00;;;;;;;3.95;3.20;;;8.70;99.90;;;;;;5051330;28;20041;-73
2022/05/31 04:36:26;;;;;;;3.72;3.38;;;8.60;99.90;;;;;;5033681;28;20021;-76
2022/05/31 04:38:51;;;;;;;3.75;3.25;;;8.40;99.90;;;;;;5051408;28;20051;-75
2022/05/31 04:41:26;;;;;;;4.45;2.85;;;8.30;99.90;;;;;;5050886;28;20025;-76
2022/05/31 04:43:53;;;;;;;6.13;4.22;;;8.40;99.90;;;;;;5051422;28;20079;-76
2022/05/31 04:46:22;;;;;;;4.40;3.83;;;8.50;99.90;;;;;;5051393;28;20104;-75
2022/05/31 04:48:48;;;;;;;4.65;3.22;;;8.60;99.90;;;;;;5051239;28;20565;-75
2022/05/31 04:51:14;;;;;;;4.45;4.05;;;8.70;99.90;;;;;;5050808;28;20132;-72
2022/05/31 04:53:41;;;;;;;4.18;3.67;;;8.40;99.90;;;;;;5051198;28;20044;-76
2022/05/31 04:56:09;;;;;;;4.53;3.47;;;8.20;99.90;;;;;;5051906;28;20053;-75
2022/05/31 04:58:35;;;;;;;4.15;3.58;;;8.50;99.90;;;;;;5051308;28;20498;-77
2022/05/31 05:01:01;;;;;;;3.92;3.60;;;8.80;99.90;;;;;;5033770;28;20043;-76
2022/05/31 05:03:31;;;;;;;4.63;3.70;;;8.80;99.90;;;;;;5033613;28;20544;-73
2022/05/31 05:06:04;;;;;;;4.13;2.95;;;8.60;99.90;;;;;;5051324;28;20041;-78
2022/05/31 05:08:30;;;;;;;3.47;3.17;;;8.90;99.90;;;;;;5054215;28;20112;-77
2022/05/31 05:10:55;;;;;;;3.50;3.20;;;9.00;99.90;;;;;;5052452;28;20049;-75
2022/05/31 05:13:21;;;;;;;4.18;3.42;;;9.10;99.90;;;;;;5051290;28;20028;-75
2022/05/31 05:15:47;;;;;;;4.65;4.20;;;9.20;99.90;;;;;;5051107;28;20040;-73
2022/05/31 05:18:12;;;;;;;5.53;4.82;;;9.30;99.90;;;;;;5051043;28;20037;-73
2022/05/31 05:20:39;;;;;;;6.07;4.85;;;9.50;99.90;;;;;;5050511;28;20075;-74
2022/05/31 05:23:06;;;;;;;6.40;5.78;;;9.70;99.90;;;;;;5033159;28;20555;-73
2022/05/31 05:25:32;;;;;;;5.50;4.90;;;9.70;99.90;;;;;;5033287;28;20070;-76
2022/05/31 05:27:58;;;;;;;5.65;5.05;;;9.80;99.90;;;;;;5032822;28;20063;-75
2022/05/31 05:30:38;;;;;;;3.88;3.58;;;9.90;99.90;;;;;;5050397;28;20025;-73
2022/05/31 05:33:04;;;;;;;4.78;3.95;;;10.10;99.90;;;;;;5053179;28;20108;-73
2022/05/31 05:35:29;;;;;;;6.68;3.97;;;10.50;99.90;;;;;;5036640;28;20113;-76
2022/05/31 05:37:55;;;;;;;4.03;3.42;;;10.60;99.90;;;;;;5054487;28;20025;-74
2022/05/31 05:40:20;;;;;;;4.38;3.50;;;10.60;99.90;;;;;;5053805;28;20033;-76
2022/05/31 05:42:46;;;;;;;3.20;2.90;;;10.70;99.90;;;;;;5036570;28;20045;-73
2022/05/31 05:45:11;;;;;;;3.25;2.80;;;10.80;99.90;;;;;;5054259;28;20035;-75
2022/05/31 05:47:37;;;;;;;3.22;2.90;;;11.00;99.90;;;;;;5036369;28;20047;-74
2022/05/31 05:50:04;;;;;;;5.03;3.38;;;10.90;99.90;;;;;;5036596;28;20060;-74
2022/05/31 05:52:30;;;;;;;4.03;3.28;;;11.00;99.90;;;;;;5036243;28;20028;-74
2022/05/31 05:54:57;;;;;;;4.90;3.17;;;11.00;99.90;;;;;;5053980;28;20103;-74
2022/05/31 05:57:23;;;;;;;5.32;3.35;;;11.10;99.90;;;;;;5054520;28;20024;-75
2022/05/31 05:59:48;;;;;;;6.78;3.10;;;11.20;99.90;;;;;;5054444;28;20035;-77
2022/05/31 06:02:29;;;;;;;4.68;3.13;;;11.30;99.90;;;;;;5054334;28;20080;-74
2022/05/31 06:05:07;;;;;;;3.30;2.90;;;11.50;99.90;;;;;;5036401;28;20021;-74
2022/05/31 06:07:48;;;;;;;3.25;2.80;;;11.60;99.90;;;;;;5036623;28;20021;-74
2022/05/31 06:10:19;;;;;;;4.18;2.75;;;11.80;99.90;;;;;;5053759;28;20023;-75
2022/05/31 06:12:59;;;;;;;3.00;2.63;;;11.90;99.90;;;;;;5054218;28;20112;-75
2022/05/31 06:15:33;;;;;;;5.00;2.83;;;11.90;99.90;;;;;;5054180;28;20032;-74
2022/05/31 06:18:05;;;;;;;3.08;2.70;;;12.10;99.90;;;;;;5023275;28;20025;-74
2022/05/31 06:20:31;;;;;;;3.55;2.75;;;12.10;99.90;;;;;;5053443;28;20029;-74
2022/05/31 06:22:57;;;;;;;4.45;2.60;;;12.30;99.90;;;;;;5036016;28;20461;-74
2022/05/31 06:25:23;;;;;;;5.60;2.90;;;12.40;99.90;;;;;;5053779;28;20021;-74
2022/05/31 06:27:49;;;;;;;3.70;2.53;;;12.60;99.90;;;;;;5035537;28;20669;-74
2022/05/31 06:30:15;;;;;;;2.90;2.60;;;12.80;99.90;;;;;;5035427;28;20021;-74
2022/05/31 06:32:41;;;;;;;5.00;2.80;;;12.90;99.90;;;;;;5053538;28;20036;-74
2022/05/31 06:35:07;;;;;;;3.03;2.70;;;13.10;99.90;;;;;;5053468;28;20032;-74
2022/05/31 06:37:33;;;;;;;4.65;2.50;;;13.30;99.90;;;;;;5053362;28;20033;-74
2022/05/31 06:39:59;;;;;;;2.75;2.55;;;13.20;99.90;;;;;;5053386;28;20025;-74
2022/05/31 06:42:25;;;;;;;4.57;2.83;;;13.10;99.90;;;;;;5034853;28;20456;-75
2022/05/31 06:44:50;;;;;;;3.85;2.40;;;13.20;99.90;;;;;;5034305;28;20024;-75
2022/05/31 06:47:15;;;;;;;4.60;2.40;;;13.40;99.90;;;;;;5053177;28;20024;-74
2022/05/31 06:49:41;;;;;;;3.03;2.40;;;13.70;99.90;;;;;;5053173;28;20033;-71
2022/05/31 06:57:42;;;;;;;4.03;2.10;;;13.90;99.90;;;;;;5053048;28;20036;-74
2022/05/31 07:00:12;;;;;;;2.47;2.10;;;13.80;99.90;;;;;;5052762;28;20047;-74
2022/05/31 07:02:38;;;;;;;4.30;2.72;;;14.00;99.90;;;;;;5052546;28;20093;-75
2022/05/31 07:05:04;;;;;;;8.15;5.90;;;14.10;99.90;;;;;;5035075;28;20013;-74
2022/05/31 07:07:30;;;;;;;3.90;2.30;;;14.20;99.90;;;;;;5034936;28;20021;-76
2022/05/31 07:09:56;;;;;;;2.80;2.28;;;14.30;99.90;;;;;;5039435;28;20013;-75
2022/05/31 07:12:21;;;;;;;5.85;2.28;;;14.60;99.90;;;;;;5052290;28;20028;-74
2022/05/31 07:14:47;;;;;;;3.35;2.10;;;14.60;99.90;;;;;;5052497;28;20052;-75
2022/05/31 07:17:13;;;;;;;3.88;2.20;;;14.50;99.90;;;;;;5052503;28;20054;-74
2022/05/31 07:19:39;;;;;;;4.65;2.00;;;14.60;99.90;;;;;;5045355;28;20030;-74
2022/05/31 07:22:05;;;;;;;3.13;1.85;;;14.70;99.90;;;;;;5046230;28;20388;-74
2022/05/31 07:24:31;;;;;;;2.92;1.90;;;14.80;99.90;;;;;;5052192;28;20083;-74
2022/05/31 07:26:57;;;;;;;2.38;2.17;;;14.90;99.90;;;;;;5052245;28;20024;-74
2022/05/31 07:29:23;;;;;;;4.30;2.22;;;15.00;99.90;;;;;;5034485;28;20517;-74
2022/05/31 07:31:49;;;;;;;2.88;1.98;;;15.00;99.90;;;;;;5051628;28;20104;-74
2022/05/31 07:34:16;;;;;;;2.22;1.98;;;15.00;99.90;;;;;;5034398;28;20049;-74
2022/05/31 07:36:42;;;;;;;2.13;1.73;;;15.30;99.90;;;;;;5052325;28;20032;-74
2022/05/31 07:39:19;;;;;;;2.72;1.95;;;15.30;99.90;;;;;;5052181;28;20029;-75
2022/05/31 07:41:46;;;;;;;2.15;1.90;;;15.40;99.90;;;;;;5034592;28;20025;-75
2022/05/31 07:44:13;;;;;;;2.55;2.13;;;15.60;99.90;;;;;;5034170;28;20192;-72
2022/05/31 07:46:39;;;;;;;3.00;1.77;;;15.90;99.90;;;;;;5035082;28;20498;-75
2022/05/31 07:49:05;;;;;;;4.32;1.92;;;16.20;99.90;;;;;;5051974;28;20119;-75
2022/05/31 07:51:31;;;;;;;3.00;2.00;;;16.40;99.90;;;;;;5032375;28;20018;-75
2022/05/31 07:53:57;;;;;;;2.22;1.80;;;16.50;99.90;;;;;;5051412;28;20021;-74
2022/05/31 07:56:23;;;;;;;3.58;2.25;;;16.60;99.90;;;;;;5051642;28;20025;-74
2022/05/31 07:58:49;;;;;;;3.58;1.70;;;16.30;99.90;;;;;;5051761;28;20072;-74
2022/05/31 08:01:17;;;;;;;1.60;1.50;;;16.10;99.90;;;;;;5033498;28;20025;-75
2022/05/31 08:03:44;;;;;;;2.13;1.50;;;16.30;99.90;;;;;;5051884;28;20032;-75
2022/05/31 08:06:19;;;;;;;2.40;2.00;;;16.40;99.90;;;;;;5051890;28;20033;-76
2022/05/31 08:08:45;;;;;;;2.28;1.90;;;16.60;99.90;;;;;;5051903;28;20025;-75
2022/05/31 08:11:17;;;;;;;3.15;2.00;;;16.70;99.90;;;;;;5051080;28;20036;-76
2022/05/31 08:13:43;;;;;;;3.15;1.90;;;16.70;99.90;;;;;;5051659;28;20164;-75
2022/05/31 08:16:10;;;;;;;2.20;1.42;;;16.80;99.90;;;;;;5033797;28;20032;-75
2022/05/31 08:18:38;;;;;;;3.42;2.03;;;16.80;99.90;;;;;;5051621;28;20021;-75
2022/05/31 08:21:09;;;;;;;2.20;1.67;;;17.10;99.90;;;;;;5051104;28;20052;-75
2022/05/31 08:23:35;;;;;;;1.80;1.50;;;17.40;99.90;;;;;;5031770;28;20395;-76
2022/05/31 08:26:02;;;;;;;1.45;1.20;;;17.50;99.90;;;;;;5045033;28;20036;-75
2022/05/31 08:28:28;;;;;;;2.63;1.23;;;17.20;99.90;;;;;;5051106;28;20021;-71
2022/05/31 08:30:58;;;;;;;3.03;1.52;;;17.40;99.90;;;;;;5051020;28;20032;-75
2022/05/31 08:33:24;;;;;;;2.45;1.73;;;17.50;99.90;;;;;;5051507;28;20082;-75
2022/05/31 08:35:51;;;;;;;2.55;1.58;;;17.80;99.90;;;;;;5051553;28;20021;-76
2022/05/31 08:38:16;;;;;;;1.88;1.40;;;17.80;99.90;;;;;;5051371;28;20021;-75
2022/05/31 08:41:00;;;;;;;1.55;1.45;;;18.20;99.90;;;;;;5033156;28;20032;-75
2022/05/31 08:43:47;;;;;;;2.00;1.80;;;18.10;99.90;;;;;;5033603;28;20402;-75
2022/05/31 08:46:24;;;;;;;3.35;1.58;;;18.00;99.90;;;;;;5033706;28;20025;-75
2022/05/31 08:48:58;;;;;;;1.85;1.60;;;18.60;99.90;;;;;;5031415;28;20459;-75
2022/05/31 08:51:54;;;;;;;2.75;1.40;;;18.90;99.90;;;;;;5028225;28;20171;-75
2022/05/31 08:57:27;;;;;;;1.67;1.42;;;18.30;99.90;;;;;;5041448;28;20090;-75
2022/05/31 09:00:04;;;;;;;;;;;18.80;99.90;;;;;;5051763;28;20029;-75
2022/05/31 09:02:37;;;;;;;3.15;1.50;;;19.00;99.90;;;;;;5050658;28;20355;-75
2022/05/31 09:05:11;;;;;;;3.92;1.65;;;19.00;99.90;;;;;;5038007;28;20029;-75
2022/05/31 09:07:48;;;;;;;2.30;1.55;;;19.10;99.90;;;;;;5052648;28;20028;-75
2022/05/31 09:10:24;;;;;;;2.33;1.50;;;19.00;99.90;;;;;;5054815;28;20017;-74
2022/05/31 09:12:58;;;;;;;1.40;1.30;;;19.10;99.90;;;;;;5054982;28;20025;-74
2022/05/31 09:15:44;;;;;;;2.42;1.58;;;19.50;99.90;;;;;;5037161;28;20024;-74
2022/05/31 09:18:38;;;;;;;2.13;1.65;;;19.50;99.90;;;;;;5043605;28;20025;-75
2022/05/31 09:21:06;;;;;;;3.28;1.48;;;19.30;99.90;;;;;;5041084;28;20502;-75
2022/05/31 09:23:38;;;;;;;3.60;1.90;;;19.60;99.90;;;;;;5036988;28;20040;-75
2022/05/31 09:26:13;;;;;;;2.13;1.80;;;19.80;99.90;;;;;;5041884;28;20020;-75
2022/05/31 09:29:01;;;;;;;1.42;1.30;;;19.70;99.90;;;;;;5036689;28;20037;-76
2022/05/31 09:31:58;;;;;;;3.85;1.77;;;19.30;99.90;;;;;;5054304;28;20029;-74
2022/05/31 09:34:27;;;;;;;4.85;1.67;;;19.40;99.90;;;;;;5034830;28;20034;-75
2022/05/31 09:37:07;;;;;;;2.30;1.45;;;19.90;99.90;;;;;;5050942;28;20114;-75
2022/05/31 09:40:04;;;;;;;2.50;1.58;;;20.20;99.90;;;;;;5054578;28;20021;-75
2022/05/31 09:42:40;;;;;;;1.63;1.50;;;20.00;99.90;;;;;;5033717;28;20441;-75
2022/05/31 09:45:14;;;;;;;3.17;1.45;;;20.10;99.90;;;;;;5054371;28;20040;-75
2022/05/31 09:47:39;;;;;;;3.35;1.70;;;20.80;99.90;;;;;;5036435;28;20025;-75
2022/05/31 09:50:05;;;;;;;3.33;1.73;;;20.40;99.90;;;;;;5036463;28;20078;-75
2022/05/31 09:52:45;;;;;;;3.80;1.50;;;20.10;99.90;;;;;;5053792;28;20377;-75
2022/05/31 09:58:08;;;;;;;2.65;1.70;;;19.10;99.90;;;;;;5054341;28;20082;-76
2022/05/31 10:00:35;;;;;;;2.33;1.67;;;19.20;99.90;;;;;;5052952;28;20108;-75
2022/05/31 10:03:13;;;;;;;1.55;1.42;;;19.70;99.90;;;;;;5054103;28;20530;-75
2022/05/31 10:05:40;;;;;;;3.67;1.50;;;20.20;99.90;;;;;;5053956;28;20471;-76
2022/05/31 10:08:15;;;;;;;3.05;1.35;;;20.80;99.30;;;;;;5053270;28;20025;-76
2022/05/31 10:10:47;;;;;;;3.03;1.80;;;20.50;98.80;;;;;;5052988;28;20032;-76
2022/05/31 10:13:13;;;;;;;2.42;1.35;;;21.10;99.30;;;;;;5053885;28;20021;-76
2022/05/31 10:15:44;;;;;;;4.55;1.40;;;21.40;97.20;;;;;;5053852;28;20032;-76
2022/05/31 10:18:31;;;;;;;3.65;1.48;;;20.80;97.00;;;;;;5047488;28;20605;-76
2022/05/31 10:21:09;;;;;;;3.63;1.42;;;21.40;98.20;;;;;;5052939;28;20033;-76
2022/05/31 10:23:39;;;;;;;1.70;1.10;;;21.50;97.00;;;;;;5053706;28;20044;-76
2022/05/31 10:26:05;;;;;;;2.00;1.30;;;21.20;97.20;;;;;;5051972;28;20036;-76
2022/05/31 10:28:40;;;;;;;2.40;1.42;;;21.40;95.80;;;;;;5053199;28;20382;-76
2022/05/31 10:31:33;;;;;;;2.22;1.20;;;21.30;94.80;;;;;;5034946;28;20033;-75
2022/05/31 10:34:22;;;;;;;2.17;1.30;;;21.10;97.50;;;;;;5035565;28;20112;-76
2022/05/31 10:36:52;;;;;;;2.88;1.60;;;21.90;95.90;;;;;;5040870;28;20057;-75
2022/05/31 10:39:22;;;;;;;1.55;1.30;;;22.30;95.30;;;;;;5027358;28;20028;-75
2022/05/31 10:41:51;;;;;;;2.60;1.30;;;21.60;93.00;;;;;;5034681;28;20029;-75
2022/05/31 10:44:38;;;;;;;2.15;1.40;;;21.20;92.90;;;;;;5045207;28;20013;-76
2022/05/31 10:47:10;;;;;;;4.03;1.58;;;22.00;94.00;;;;;;5051101;28;20021;-75
2022/05/31 10:49:36;;;;;;;1.63;1.20;;;22.20;93.00;;;;;;5035339;28;20021;-76
2022/05/31 10:52:20;;;;;;;2.45;1.23;;;22.40;93.90;;;;;;5034411;28;20021;-76
2022/05/31 10:55:21;;;;;;;1.52;1.20;;;22.30;92.20;;;;;;5035175;28;20490;-75
2022/05/31 10:58:16;;;;;;;2.15;1.60;;;22.40;92.90;;;;;;5048843;28;20108;-76
2022/05/31 11:00:55;;;;;;;2.33;1.20;;;22.30;91.90;;;;;;5047701;28;20102;-76
2022/05/31 11:03:27;;;;;;;1.50;1.30;;;21.40;92.00;;;;;;5022137;28;20111;-75
2022/05/31 11:06:11;;;;;;;2.70;1.30;;;20.60;93.10;;;;;;5052777;28;20021;-76
2022/05/31 11:12:30;;;;;;;2.20;1.48;;;21.10;92.30;;;;;;5049526;28;20078;-76
2022/05/31 11:15:22;;;;;;;2.28;1.33;;;20.60;94.00;;;;;;5049735;28;20017;-75
2022/05/31 11:18:08;;;;;;;4.45;1.55;;;20.80;94.00;;;;;;5034728;28;20013;-76
2022/05/31 11:20:34;;;;;;;;;;;20.60;94.80;;;;;;5052551;28;20152;-76
2022/05/31 11:23:21;;;;;;;1.80;1.40;;;21.10;95.60;;;;;;5034184;28;19947;-75
2022/05/31 11:26:13;;;;;;;2.75;1.50;;;21.90;95.20;;;;;;5052430;28;20316;-75
2022/05/31 11:28:51;;;;;;;2.65;1.70;;;21.20;93.60;;;;;;5051839;28;20482;-75
2022/05/31 11:31:35;;;;;;;2.42;1.40;;;21.80;93.00;;;;;;5051173;28;20028;-75
2022/05/31 11:34:19;;;;;;;2.35;1.48;;;22.70;92.50;;;;;;5052305;28;20024;-76
2022/05/31 11:37:04;;;;;;;3.75;1.85;;;22.90;93.40;;;;;;5052226;28;20045;-76
2022/05/31 11:40:04;;;;;;;3.38;1.45;;;22.80;93.20;;;;;;5045814;28;20024;-76
2022/05/31 11:42:41;;;;;;;3.80;1.85;;;23.70;93.30;;;;;;5040479;28;20025;-76
2022/05/31 11:45:30;;;;;;;4.60;1.73;;;23.50;92.80;;;;;;5052210;28;20025;-76
2022/05/31 11:48:22;;;;;;;2.03;1.83;;;22.90;92.30;;;;;;5034474;28;20082;-76
2022/05/31 11:51:27;;;;;;;6.78;1.60;;;22.90;92.00;;;;;;5023785;28;20017;-76
2022/05/31 11:54:37;;;;;;;2.65;1.70;;;22.30;92.20;;;;;;5014550;28;20483;-76
2022/05/31 11:57:06;;;;;;;4.78;3.30;;;23.00;92.10;;;;;;5015303;28;20033;-76
2022/05/31 11:59:47;;;;;;;3.00;2.08;;;23.60;92.20;;;;;;5051815;28;20025;-75
2022/05/31 12:02:20;;;;;;;4.93;3.80;;;23.20;91.90;;;;;;5051200;28;20048;-75
2022/05/31 12:04:59;;;;;;;3.00;2.00;;;22.50;92.30;;;;;;5051788;28;20433;-75
2022/05/31 12:07:38;;;;;;;1.98;1.42;;;22.10;93.00;;;;;;5051776;28;20437;-75
2022/05/31 12:10:14;;;;;;;5.70;2.22;;;21.70;92.60;;;;;;5034016;28;20029;-75
2022/05/31 12:12:42;;;;;;;6.90;4.93;;;22.50;93.80;;;;;;5051514;28;20570;-76
2022/05/31 12:15:20;;;;;;;2.22;1.58;;;22.90;92.60;;;;;;5051729;28;20093;-75
2022/05/31 12:17:54;;;;;;;6.25;5.18;;;21.90;92.90;;;;;;5046280;28;20021;-75
2022/05/31 12:20:29;;;;;;;3.22;2.38;;;22.50;92.60;;;;;;5026607;28;20032;-76
2022/05/31 12:23:10;;;;;;;2.92;2.00;;;22.60;92.50;;;;;;5051635;28;20029;-75
2022/05/31 12:25:47;;;;;;;4.20;1.70;;;22.50;92.40;;;;;;5051540;28;20040;-75
2022/05/31 12:28:18;;;;;;;11.95;10.57;;;22.10;92.40;;;;;;5033479;28;20033;-76
2022/05/31 12:31:10;;;;;;;4.35;2.88;;;22.00;93.40;;;;;;5051402;28;20091;-74
2022/05/31 12:33:44;;;;;;;11.43;9.55;;;22.30;92.90;;;;;;5033668;28;20017;-75
2022/05/31 12:36:16;;;;;;;2.78;1.80;;;23.10;92.30;;;;;;5033680;28;20049;-75
2022/05/31 12:39:08;;;;;;;17.13;15.27;;;23.30;92.30;;;;;;5033789;28;20029;-75
2022/05/31 12:41:43;;;;;;;9.32;8.30;;;23.70;93.10;;;;;;5033161;28;20025;-75
2022/05/31 12:44:34;;;;;;;11.93;10.65;;;24.50;91.00;;;;;;5055586;28;20112;-76
2022/05/31 12:47:13;;;;;;;14.07;12.80;;;25.80;90.60;;;;;;5054846;28;20486;-76
2022/05/31 12:49:56;;;;;;;3.03;1.75;;;24.20;90.30;;;;;;5037553;28;20409;-76
2022/05/31 12:53:03;;;;;;;9.75;8.85;;;22.40;91.30;;;;;;5054952;28;20029;-75
2022/05/31 12:55:36;;;;;;;4.72;4.05;;;23.40;91.30;;;;;;5054905;28;20021;-73
2022/05/31 12:58:30;;;;;;;15.18;13.60;;;23.80;91.30;;;;;;5038024;28;20403;-74
2022/05/31 13:00:57;;;;;;;1.65;1.55;;;24.50;90.90;;;;;;5036664;28;20032;-76
2022/05/31 13:03:34;;;;;;;19.23;17.33;;;23.40;90.20;;;;;;5034091;28;20044;-76
2022/05/31 13:06:03;;;;;;;23.23;20.98;;;23.80;91.40;;;;;;5052734;28;20025;-74
2022/05/31 13:08:55;;;;;;;3.50;1.80;;;25.40;90.10;;;;;;5027359;28;20033;-75
2022/05/31 13:20:19;;;;;;;3.55;1.70;;;24.40;90.70;;;;;;5052147;28;20465;-75
2022/05/31 13:22:49;;;;;;;3.22;2.00;;;24.60;90.00;;;;;;5053670;28;20017;-75
2022/05/31 13:25:23;;;;;;;1.83;1.35;;;23.70;90.90;;;;;;5054956;28;20483;-76
2022/05/31 13:27:55;;;;;;;2.90;1.80;;;23.30;91.10;;;;;;5036382;28;20037;-76
2022/05/31 13:30:24;;;;;;;3.90;1.70;;;22.70;91.50;;;;;;5054067;28;20021;-76
2022/05/31 13:32:50;;;;;;;1.80;1.40;;;22.70;92.50;;;;;;5036725;28;20029;-76
2022/05/31 13:35:32;;;;;;;3.47;2.00;;;22.50;91.70;;;;;;5054565;28;20100;-76
2022/05/31 13:38:06;;;;;;;3.33;2.05;;;22.10;91.60;;;;;;5054303;28;20104;-76